METAR Data
IDs: Format: Raw Decoded Include TAF

Data at: 0627 UTC 19 Aug 2019

KMPV 190619Z AUTO 32003KT 2SM BR SCT001 18/18 A2997 RMK AO2 T01830183
KMPV 190551Z AUTO 00000KT 10SM CLR 19/19 A2994 RMK AO2 SLP133 60004 T01890189 10217 20183 58017
KMPV 190451Z AUTO 13003KT 10SM FEW030 SCT050 BKN100 20/19 A2997 RMK AO2 SLP141 T02000194 402780150
KMPV 190351Z AUTO 00000KT 10SM BKN050 OVC065 20/19 A2998 RMK AO2 RAB0253E21 SLP147 P0004 T02000189
KMPV 190251Z AUTO 00000KT 10SM FEW046 BKN060 20/19 A3000 RMK AO2 SLP153 T02000189 58003
KMPV 190151Z AUTO 00000KT 10SM OVC070 21/19 A3000 RMK AO2 SLP156 T02110189
KMPV 190051Z AUTO 00000KT 10SM BKN070 OVC085 21/19 A3000 RMK AO2 SLP156 T02060189
KMPV 182351Z AUTO 19003KT 10SM CLR 21/18 A3000 RMK AO2 SLP157 T02110178 10278 20211 56008
KMPV 182251Z AUTO 21004KT 10SM FEW085 BKN110 24/17 A3001 RMK AO2 SLP159 T02390167
KMPV 182151Z AUTO 18004KT 10SM BKN080 BKN095 26/17 A3002 RMK AO2 SLP160 T02560172
KMPV 182051Z AUTO VRB04KT 10SM FEW047 BKN085 26/17 A3003 RMK AO2 SLP164 T02610167 55007
KMPV 181951Z AUTO VRB04KT 10SM FEW040 27/18 A3002 RMK AO2 SLP162 T02670183
KMPV 181851Z AUTO 17005KT 10SM FEW042 27/18 A3005 RMK AO2 SLP169 T02670183
KMPV 181751Z AUTO VRB03KT 10SM FEW033 FEW049 26/18 A3005 RMK AO2 SLP172 T02610178 10261 20167 55011
KMPV 181651Z AUTO VRB03KT 10SM BKN030 BKN035 25/18 A3004 RMK AO2 SLP169 T02500183
KMPV 181623Z AUTO 24003KT 10SM FEW024 BKN034 23/18 A3005 RMK AO2 T02280178
KMPV 181616Z AUTO 00000KT 10SM BKN024 BKN036 23/18 A3006 RMK AO2 T02330183
KMPV 181607Z AUTO 01003KT 10SM SCT024 BKN032 23/19 A3006 RMK AO2 T02330189
KMPV 181551Z AUTO VRB03KT 10SM BKN024 BKN030 23/18 A3007 RMK AO2 SLP178 T02280183
KMPV 181538Z AUTO 00000KT 10SM BKN022 23/18 A3007 RMK AO2 T02280183
KMPV 181451Z AUTO 00000KT 10SM FEW010 21/19 A3009 RMK AO2 SLP184 T02110194 50002
KMPV 181419Z AUTO 00000KT 10SM FEW004 OVC032 20/18 A3009 RMK AO2 T02000183
KMPV 181351Z AUTO 29004KT 10SM OVC004 18/18 A3010 RMK AO2 SLP189 T01830178
KMPV 181251Z AUTO 00000KT 10SM OVC003 18/17 A3008 RMK AO2 SLP186 T01780172 $
KMPV 181202Z AUTO 00000KT 5SM BR OVC001 17/17 A3008 RMK AO2 T01670167 $
KMPV 181151Z AUTO 00000KT 2SM BR OVC001 17/17 A3008 RMK AO2 SLP185 70056 T01670167 10183 20150 53012 $
KMPV 181134Z AUTO VRB03KT 1 3/4SM BR OVC001 17/17 A3008 RMK AO2 T01670167 $
KMPV 181109Z AUTO 22004KT 2SM BR OVC001 17/17 A3007 RMK AO2 T01670167 $
KMPV 181100Z AUTO 00000KT 1 1/2SM BR OVC002 17/17 A3006 RMK AO2 T01670167 $
KMPV 181051Z AUTO 20004KT 2 1/2SM BR OVC002 17/17 A3006 RMK AO2 SLP178 T01670167 $
KMPV 181044Z AUTO 17004KT 3SM BR OVC002 17/17 A3006 RMK AO2 T01670167 $
KMPV 180951Z AUTO 00000KT 10SM OVC004 16/16 A3005 RMK AO2 SLP172 T01610156 $
KMPV 180932Z AUTO 00000KT 8SM BKN004 15/15 A3004 RMK AO2 CIG 001V005 T01500150 $
KMPV 180923Z AUTO 00000KT 9SM SCT004 16/16 A3004 RMK AO2 T01560156 $
KMPV 180851Z AUTO 00000KT 4SM BR CLR 16/16 A3004 RMK AO2 SLP169 T01560156 55002 $
KMPV 180815Z AUTO 00000KT 10SM FEW006 17/16 A3004 RMK AO2 T01670161 $
KMPV 180751Z AUTO 00000KT 8SM CLR 17/17 A3004 RMK AO2 SLP168 T01670167 $
KMPV 180651Z AUTO 16005KT 10SM SCT009 BKN038 18/17 A3005 RMK AO2 SLP170 T01830172 $
KMPV 180551Z AUTO 36004KT 10SM OVC008 18/18 A3005 RMK AO2 SLP170 60003 T01830178 10189 20178 53004 $
KMPV 180451Z AUTO 16005KT 10SM BKN009 OVC043 19/18 A3004 RMK AO2 CIG 007V011 SLP167 T01890178 402720178 $
KMPV 180351Z AUTO VRB04KT 10SM BKN007 OVC080 18/18 A3004 RMK AO2 SLP167 T01830178 $
KMPV 180347Z AUTO VRB03KT 10SM BKN007 OVC080 18/18 A3004 RMK AO2 $
KMPV 180335Z AUTO 20005KT 10SM SCT007 OVC080 18/18 A3004 RMK AO2 T01830178 $
KMPV 180251Z AUTO 00000KT 10SM BKN070 OVC090 18/18 A3004 RMK AO2 SLP167 60003 T01830178 53005 $
KMPV 180151Z AUTO 16003KT 10SM CLR 19/18 A3004 RMK AO2 SLP170 T01890178 /
KMPV 180051Z AUTO 21003KT 10SM CLR 18/18 A3001 RMK AO2 LTG DSNT E RAE23 SLP161 P0003 T01830178 $
KMPV 172351Z AUTO 14007KT 10SM RA FEW080 OVC110 19/18 A3002 RMK AO2 LTG DSNT NE-SE TSB08E32 SLP165 P0050 60053 T01890183 10272 20189 53009 $
KMPV 172338Z AUTO 15004KT 10SM VCTS -RA FEW070 BKN085 OVC110 19/17 A3004 RMK AO2 LTG DSNT NE-S TSB08E32 P0047 T01940172 $
KMPV 172323Z AUTO 10003KT 7SM -TSRA FEW019 BKN070 OVC095 19/18 A3004 RMK AO2 LTG DSNT ALQDS TSB08 P0046 T01940178 $
KMPV 172313Z AUTO VRB04KT 2SM +TSRA BR FEW019 BKN030 OVC065 19/18 A3004 RMK AO2 LTG DSNT ALQDS TSB08 P0043 T01940178 $
KMPV 172305Z AUTO 27008G18KT 1 3/4SM +RA BR FEW019 BKN028 OVC041 20/18 A3004 RMK AO2 LTG DSNT ALQDS P0033 T02000183 $
KMPV 172259Z AUTO 24011G16KT 3SM +RA BR FEW019 BKN028 OVC039 22/20 A3004 RMK AO2 LTG DSNT ALQDS PRESRR P0016 T02170200 $
KMPV 172251Z AUTO 17005KT 9SM VCTS -RA SCT028 OVC037 22/20 A3001 RMK AO2 LTG DSNT ALQDS RAB35 TSB16E49 SLP157 P0003 T02220200 $
KMPV 172222Z AUTO 17007KT 10SM TS BKN033 BKN046 OVC055 24/20 A3001 RMK AO2 LTG DSNT ALQDS TSB16 T02390200 $
KMPV 172151Z AUTO 00000KT 10SM VCTS BKN035 OVC046 24/21 A3000 RMK AO2 LTG DSNT S AND SW SLP155 T02440206 $
KMPV 172051Z AUTO 19003KT 10SM FEW047 27/18 A3000 RMK AO2 SLP152 T02670183 56017 $
KMPV 171951Z AUTO 21004KT 10SM FEW047 SCT060 27/18 A3001 RMK AO2 SLP157 T02720183 $
KMPV 171851Z AUTO VRB06KT 10SM SCT046 BKN060 BKN075 26/18 A3003 RMK AO2 SLP163 T02610178 $